sensor_id;sensor_type;location;lat;lon;timestamp;temperature;humidity
12111;DHT22;6119;52.372;8.990;2023-11-19T00:01:20;9.10;99.90
12111;DHT22;6119;52.372;8.990;2023-11-19T00:04:06;9.10;99.90
12111;DHT22;6119;52.372;8.990;2023-11-19T00:06:54;9.10;99.90
12111;DHT22;6119;52.372;8.990;2023-11-19T00:09:42;9.20;99.90
12111;DHT22;6119;52.372;8.990;2023-11-19T00:12:29;9.30;99.90
12111;DHT22;6119;52.372;8.990;2023-11-19T00:15:17;9.20;99.90
12111;DHT22;6119;52.372;8.990;2023-11-19T00:18:06;9.20;99.90
12111;DHT22;6119;52.372;8.990;2023-11-19T00:20:53;9.30;99.90
12111;DHT22;6119;52.372;8.990;2023-11-19T00:23:39;9.30;99.90
12111;DHT22;6119;52.372;8.990;2023-11-19T00:26:26;9.40;99.90
12111;DHT22;6119;52.372;8.990;2023-11-19T00:29:13;9.50;99.90
12111;DHT22;6119;52.372;8.990;2023-11-19T00:32:00;9.50;99.90
12111;DHT22;6119;52.372;8.990;2023-11-19T00:34:48;9.50;99.90
12111;DHT22;6119;52.372;8.990;2023-11-19T00:37:35;9.60;99.90
12111;DHT22;6119;52.372;8.990;2023-11-19T00:40:22;9.60;99.90
12111;DHT22;6119;52.372;8.990;2023-11-19T00:43:09;9.70;99.90
12111;DHT22;6119;52.372;8.990;2023-11-19T00:45:56;9.70;99.90
12111;DHT22;6119;52.372;8.990;2023-11-19T00:48:42;9.70;99.90
12111;DHT22;6119;52.372;8.990;2023-11-19T00:51:30;9.70;99.90
12111;DHT22;6119;52.372;8.990;2023-11-19T00:54:18;9.90;99.90
12111;DHT22;6119;52.372;8.990;2023-11-19T00:57:04;9.80;99.90
12111;DHT22;6119;52.372;8.990;2023-11-19T00:59:51;9.90;99.90
12111;DHT22;6119;52.372;8.990;2023-11-19T01:02:37;9.90;99.90
12111;DHT22;6119;52.372;8.990;2023-11-19T01:05:24;9.90;99.90
12111;DHT22;6119;52.372;8.990;2023-11-19T01:08:13;10.00;99.90
12111;DHT22;6119;52.372;8.990;2023-11-19T01:11:00;10.00;99.90
12111;DHT22;6119;52.372;8.990;2023-11-19T01:13:47;10.10;99.90
12111;DHT22;6119;52.372;8.990;2023-11-19T01:16:34;10.80;99.90
12111;DHT22;6119;52.372;8.990;2023-11-19T01:19:22;10.10;99.90
12111;DHT22;6119;52.372;8.990;2023-11-19T01:22:09;10.10;99.90
12111;DHT22;6119;52.372;8.990;2023-11-19T01:24:57;10.20;99.90
12111;DHT22;6119;52.372;8.990;2023-11-19T01:27:44;10.20;99.90
12111;DHT22;6119;52.372;8.990;2023-11-19T01:30:30;10.20;99.90
12111;DHT22;6119;52.372;8.990;2023-11-19T01:33:17;10.30;99.90
12111;DHT22;6119;52.372;8.990;2023-11-19T01:36:04;10.30;99.90
12111;DHT22;6119;52.372;8.990;2023-11-19T01:38:51;10.30;99.90
12111;DHT22;6119;52.372;8.990;2023-11-19T01:41:39;10.30;99.90
12111;DHT22;6119;52.372;8.990;2023-11-19T01:44:26;10.40;99.90
12111;DHT22;6119;52.372;8.990;2023-11-19T01:47:12;10.40;99.90
12111;DHT22;6119;52.372;8.990;2023-11-19T01:50:00;10.40;99.90
12111;DHT22;6119;52.372;8.990;2023-11-19T01:52:52;10.40;99.90
12111;DHT22;6119;52.372;8.990;2023-11-19T01:55:39;10.40;99.90
12111;DHT22;6119;52.372;8.990;2023-11-19T01:58:28;10.50;99.90
12111;DHT22;6119;52.372;8.990;2023-11-19T02:01:16;10.50;99.90
12111;DHT22;6119;52.372;8.990;2023-11-19T02:04:04;10.50;99.90
12111;DHT22;6119;52.372;8.990;2023-11-19T02:06:54;10.50;99.90
12111;DHT22;6119;52.372;8.990;2023-11-19T02:09:43;10.50;99.90
12111;DHT22;6119;52.372;8.990;2023-11-19T02:12:30;10.50;99.90
12111;DHT22;6119;52.372;8.990;2023-11-19T02:15:20;10.60;99.90
12111;DHT22;6119;52.372;8.990;2023-11-19T02:18:20;10.60;99.90
12111;DHT22;6119;52.372;8.990;2023-11-19T02:21:07;10.60;99.90
12111;DHT22;6119;52.372;8.990;2023-11-19T02:23:55;10.60;99.90
12111;DHT22;6119;52.372;8.990;2023-11-19T02:27:01;10.60;99.90
12111;DHT22;6119;52.372;8.990;2023-11-19T02:29:51;10.70;99.90
12111;DHT22;6119;52.372;8.990;2023-11-19T02:32:39;10.70;99.90
12111;DHT22;6119;52.372;8.990;2023-11-19T02:35:26;10.80;99.90
12111;DHT22;6119;52.372;8.990;2023-11-19T02:38:16;10.80;99.90
12111;DHT22;6119;52.372;8.990;2023-11-19T02:41:04;10.80;99.90
12111;DHT22;6119;52.372;8.990;2023-11-19T02:43:51;10.90;99.90
12111;DHT22;6119;52.372;8.990;2023-11-19T02:46:40;10.80;99.90
12111;DHT22;6119;52.372;8.990;2023-11-19T02:49:28;10.90;99.90
12111;DHT22;6119;52.372;8.990;2023-11-19T02:52:15;10.90;99.90
12111;DHT22;6119;52.372;8.990;2023-11-19T02:55:02;10.90;99.90
12111;DHT22;6119;52.372;8.990;2023-11-19T02:57:54;11.00;99.90
12111;DHT22;6119;52.372;8.990;2023-11-19T03:00:42;11.00;99.90
12111;DHT22;6119;52.372;8.990;2023-11-19T03:03:39;11.10;99.90
12111;DHT22;6119;52.372;8.990;2023-11-19T03:06:27;11.10;99.90
12111;DHT22;6119;52.372;8.990;2023-11-19T03:09:14;11.10;99.90
12111;DHT22;6119;52.372;8.990;2023-11-19T03:12:00;11.10;99.90
12111;DHT22;6119;52.372;8.990;2023-11-19T03:14:47;11.20;99.90
12111;DHT22;6119;52.372;8.990;2023-11-19T03:17:36;11.20;99.90
12111;DHT22;6119;52.372;8.990;2023-11-19T03:20:24;11.20;99.90
12111;DHT22;6119;52.372;8.990;2023-11-19T03:23:13;11.30;99.90
12111;DHT22;6119;52.372;8.990;2023-11-19T03:26:00;11.20;99.90
12111;DHT22;6119;52.372;8.990;2023-11-19T03:28:50;11.30;99.90
12111;DHT22;6119;52.372;8.990;2023-11-19T03:31:42;11.30;99.90
12111;DHT22;6119;52.372;8.990;2023-11-19T03:34:29;11.30;99.90
12111;DHT22;6119;52.372;8.990;2023-11-19T03:37:17;11.30;99.90
12111;DHT22;6119;52.372;8.990;2023-11-19T03:40:06;11.40;99.90
12111;DHT22;6119;52.372;8.990;2023-11-19T03:42:54;11.40;99.90
12111;DHT22;6119;52.372;8.990;2023-11-19T03:45:42;11.50;99.90
12111;DHT22;6119;52.372;8.990;2023-11-19T03:48:29;11.50;99.90
12111;DHT22;6119;52.372;8.990;2023-11-19T03:51:15;11.50;99.90
12111;DHT22;6119;52.372;8.990;2023-11-19T03:54:06;11.60;99.90
12111;DHT22;6119;52.372;8.990;2023-11-19T03:56:53;11.60;99.90
12111;DHT22;6119;52.372;8.990;2023-11-19T03:59:39;11.60;99.90
12111;DHT22;6119;52.372;8.990;2023-11-19T04:02:26;11.60;99.90
12111;DHT22;6119;52.372;8.990;2023-11-19T04:05:14;11.70;99.90
12111;DHT22;6119;52.372;8.990;2023-11-19T04:08:00;11.70;99.90
12111;DHT22;6119;52.372;8.990;2023-11-19T04:10:49;11.80;99.90
12111;DHT22;6119;52.372;8.990;2023-11-19T04:13:35;11.80;99.90
12111;DHT22;6119;52.372;8.990;2023-11-19T04:16:26;11.90;99.90
12111;DHT22;6119;52.372;8.990;2023-11-19T04:19:14;11.80;99.90
12111;DHT22;6119;52.372;8.990;2023-11-19T04:22:00;11.90;99.90
12111;DHT22;6119;52.372;8.990;2023-11-19T04:24:47;12.00;99.90
12111;DHT22;6119;52.372;8.990;2023-11-19T04:27:35;12.00;99.90
12111;DHT22;6119;52.372;8.990;2023-11-19T04:30:22;12.00;99.90
12111;DHT22;6119;52.372;8.990;2023-11-19T04:33:08;12.10;99.90
12111;DHT22;6119;52.372;8.990;2023-11-19T04:35:55;12.10;99.90
12111;DHT22;6119;52.372;8.990;2023-11-19T04:38:41;12.10;99.90
12111;DHT22;6119;52.372;8.990;2023-11-19T04:41:28;12.10;99.90
12111;DHT22;6119;52.372;8.990;2023-11-19T04:44:16;12.10;99.90
12111;DHT22;6119;52.372;8.990;2023-11-19T04:47:03;12.10;99.90
12111;DHT22;6119;52.372;8.990;2023-11-19T04:49:51;12.10;99.90
12111;DHT22;6119;52.372;8.990;2023-11-19T04:52:37;12.10;99.90
12111;DHT22;6119;52.372;8.990;2023-11-19T04:55:28;12.10;99.90
12111;DHT22;6119;52.372;8.990;2023-11-19T04:58:14;12.10;99.90
12111;DHT22;6119;52.372;8.990;2023-11-19T05:01:02;12.20;99.90
12111;DHT22;6119;52.372;8.990;2023-11-19T05:03:50;12.20;99.90
12111;DHT22;6119;52.372;8.990;2023-11-19T05:06:37;12.20;99.90
12111;DHT22;6119;52.372;8.990;2023-11-19T05:09:25;12.20;99.90
12111;DHT22;6119;52.372;8.990;2023-11-19T05:12:12;12.20;99.90
12111;DHT22;6119;52.372;8.990;2023-11-19T05:14:58;12.20;99.90
12111;DHT22;6119;52.372;8.990;2023-11-19T05:17:47;12.20;99.90
12111;DHT22;6119;52.372;8.990;2023-11-19T05:20:33;12.20;99.90
12111;DHT22;6119;52.372;8.990;2023-11-19T05:23:20;12.30;99.90
12111;DHT22;6119;52.372;8.990;2023-11-19T05:26:06;12.20;99.90
12111;DHT22;6119;52.372;8.990;2023-11-19T05:28:53;12.30;99.90
12111;DHT22;6119;52.372;8.990;2023-11-19T05:31:40;12.30;99.90
12111;DHT22;6119;52.372;8.990;2023-11-19T05:34:30;12.30;99.90
12111;DHT22;6119;52.372;8.990;2023-11-19T05:37:17;12.30;99.90
12111;DHT22;6119;52.372;8.990;2023-11-19T05:40:06;12.30;99.90
12111;DHT22;6119;52.372;8.990;2023-11-19T05:42:59;12.30;99.90
12111;DHT22;6119;52.372;8.990;2023-11-19T05:45:46;12.30;99.90
12111;DHT22;6119;52.372;8.990;2023-11-19T05:48:33;12.30;99.90
12111;DHT22;6119;52.372;8.990;2023-11-19T05:51:21;12.30;99.90
12111;DHT22;6119;52.372;8.990;2023-11-19T05:54:09;12.30;99.90
12111;DHT22;6119;52.372;8.990;2023-11-19T05:56:56;12.30;99.90
12111;DHT22;6119;52.372;8.990;2023-11-19T05:59:43;12.30;99.90
12111;DHT22;6119;52.372;8.990;2023-11-19T06:02:29;12.30;99.90
12111;DHT22;6119;52.372;8.990;2023-11-19T06:05:16;12.30;99.90
12111;DHT22;6119;52.372;8.990;2023-11-19T06:08:05;12.30;99.90
12111;DHT22;6119;52.372;8.990;2023-11-19T06:10:52;12.30;99.90
12111;DHT22;6119;52.372;8.990;2023-11-19T06:13:39;12.20;99.90
12111;DHT22;6119;52.372;8.990;2023-11-19T06:16:26;12.20;99.90
12111;DHT22;6119;52.372;8.990;2023-11-19T06:19:12;12.30;99.90
12111;DHT22;6119;52.372;8.990;2023-11-19T06:21:59;12.30;99.90
12111;DHT22;6119;52.372;8.990;2023-11-19T06:24:47;12.30;99.90
12111;DHT22;6119;52.372;8.990;2023-11-19T06:27:34;12.20;99.90
12111;DHT22;6119;52.372;8.990;2023-11-19T06:30:20;12.30;99.90
12111;DHT22;6119;52.372;8.990;2023-11-19T06:33:07;12.30;99.90
12111;DHT22;6119;52.372;8.990;2023-11-19T06:35:54;12.20;99.90
12111;DHT22;6119;52.372;8.990;2023-11-19T06:38:41;12.20;99.90
12111;DHT22;6119;52.372;8.990;2023-11-19T06:41:29;12.20;99.90
12111;DHT22;6119;52.372;8.990;2023-11-19T06:44:16;12.20;99.90
12111;DHT22;6119;52.372;8.990;2023-11-19T06:47:03;12.20;99.90
12111;DHT22;6119;52.372;8.990;2023-11-19T06:49:50;12.30;99.90
12111;DHT22;6119;52.372;8.990;2023-11-19T06:52:37;12.30;99.90
12111;DHT22;6119;52.372;8.990;2023-11-19T06:55:23;12.20;99.90
12111;DHT22;6119;52.372;8.990;2023-11-19T06:58:12;12.30;99.90
12111;DHT22;6119;52.372;8.990;2023-11-19T07:00:58;12.30;99.90
12111;DHT22;6119;52.372;8.990;2023-11-19T07:03:45;12.30;99.90
12111;DHT22;6119;52.372;8.990;2023-11-19T07:06:32;12.30;99.90
12111;DHT22;6119;52.372;8.990;2023-11-19T07:09:20;12.30;99.90
12111;DHT22;6119;52.372;8.990;2023-11-19T07:12:07;12.30;99.90
12111;DHT22;6119;52.372;8.990;2023-11-19T07:14:55;12.30;99.90
12111;DHT22;6119;52.372;8.990;2023-11-19T07:17:42;12.30;99.90
12111;DHT22;6119;52.372;8.990;2023-11-19T07:20:29;12.30;99.90
12111;DHT22;6119;52.372;8.990;2023-11-19T07:23:16;12.30;99.90
12111;DHT22;6119;52.372;8.990;2023-11-19T07:26:05;12.30;99.90
12111;DHT22;6119;52.372;8.990;2023-11-19T07:28:54;12.30;99.90
12111;DHT22;6119;52.372;8.990;2023-11-19T07:31:42;12.30;99.90
12111;DHT22;6119;52.372;8.990;2023-11-19T07:34:29;12.30;99.90
12111;DHT22;6119;52.372;8.990;2023-11-19T07:37:16;12.30;99.90
12111;DHT22;6119;52.372;8.990;2023-11-19T07:40:03;12.30;99.90
12111;DHT22;6119;52.372;8.990;2023-11-19T07:42:50;12.30;99.90
12111;DHT22;6119;52.372;8.990;2023-11-19T07:45:37;12.30;99.90
12111;DHT22;6119;52.372;8.990;2023-11-19T07:48:25;12.30;99.90
12111;DHT22;6119;52.372;8.990;2023-11-19T07:51:12;12.30;99.90
12111;DHT22;6119;52.372;8.990;2023-11-19T07:53:59;12.30;99.90
12111;DHT22;6119;52.372;8.990;2023-11-19T07:56:46;12.30;99.90
12111;DHT22;6119;52.372;8.990;2023-11-19T07:59:33;12.30;99.90
12111;DHT22;6119;52.372;8.990;2023-11-19T08:02:20;12.30;99.90
12111;DHT22;6119;52.372;8.990;2023-11-19T08:05:09;12.30;99.90
12111;DHT22;6119;52.372;8.990;2023-11-19T08:07:56;12.30;99.90
12111;DHT22;6119;52.372;8.990;2023-11-19T08:10:43;12.30;99.90
12111;DHT22;6119;52.372;8.990;2023-11-19T08:13:31;12.30;99.90
12111;DHT22;6119;52.372;8.990;2023-11-19T08:16:17;12.30;99.90
12111;DHT22;6119;52.372;8.990;2023-11-19T08:19:04;12.30;99.90
12111;DHT22;6119;52.372;8.990;2023-11-19T08:21:53;12.40;99.90
12111;DHT22;6119;52.372;8.990;2023-11-19T08:24:39;12.40;99.90
12111;DHT22;6119;52.372;8.990;2023-11-19T08:27:26;12.30;99.90
12111;DHT22;6119;52.372;8.990;2023-11-19T08:30:13;12.30;99.90
12111;DHT22;6119;52.372;8.990;2023-11-19T08:33:00;12.40;99.90
12111;DHT22;6119;52.372;8.990;2023-11-19T08:35:48;12.40;99.90
12111;DHT22;6119;52.372;8.990;2023-11-19T08:38:37;12.40;99.90
12111;DHT22;6119;52.372;8.990;2023-11-19T08:41:24;12.40;99.90
12111;DHT22;6119;52.372;8.990;2023-11-19T08:44:11;12.40;99.90
12111;DHT22;6119;52.372;8.990;2023-11-19T08:46:58;12.40;99.90
12111;DHT22;6119;52.372;8.990;2023-11-19T08:49:44;12.40;99.90
12111;DHT22;6119;52.372;8.990;2023-11-19T08:52:31;12.40;99.90
12111;DHT22;6119;52.372;8.990;2023-11-19T08:55:21;12.40;99.90
12111;DHT22;6119;52.372;8.990;2023-11-19T08:58:08;12.40;99.90
12111;DHT22;6119;52.372;8.990;2023-11-19T09:00:54;12.40;99.90
12111;DHT22;6119;52.372;8.990;2023-11-19T09:03:41;12.30;99.90
12111;DHT22;6119;52.372;8.990;2023-11-19T09:06:28;12.30;99.90
12111;DHT22;6119;52.372;8.990;2023-11-19T09:09:15;12.30;99.90
12111;DHT22;6119;52.372;8.990;2023-11-19T09:12:03;12.40;99.90
12111;DHT22;6119;52.372;8.990;2023-11-19T09:14:50;12.40;99.90
12111;DHT22;6119;52.372;8.990;2023-11-19T09:17:36;12.40;99.90
12111;DHT22;6119;52.372;8.990;2023-11-19T09:20:23;12.50;99.90
12111;DHT22;6119;52.372;8.990;2023-11-19T09:23:10;12.50;99.90
12111;DHT22;6119;52.372;8.990;2023-11-19T09:25:57;12.60;99.90
12111;DHT22;6119;52.372;8.990;2023-11-19T09:28:46;12.60;99.90
12111;DHT22;6119;52.372;8.990;2023-11-19T09:31:33;12.60;99.90
12111;DHT22;6119;52.372;8.990;2023-11-19T09:34:20;12.60;99.90
12111;DHT22;6119;52.372;8.990;2023-11-19T09:37:06;12.60;99.90
12111;DHT22;6119;52.372;8.990;2023-11-19T09:40:07;12.70;99.90
12111;DHT22;6119;52.372;8.990;2023-11-19T09:42:54;12.70;99.90
12111;DHT22;6119;52.372;8.990;2023-11-19T09:45:48;12.70;99.90
12111;DHT22;6119;52.372;8.990;2023-11-19T09:48:37;12.70;99.90
12111;DHT22;6119;52.372;8.990;2023-11-19T09:51:24;12.80;99.90
12111;DHT22;6119;52.372;8.990;2023-11-19T09:54:11;12.80;99.90
12111;DHT22;6119;52.372;8.990;2023-11-19T09:56:59;12.80;99.90
12111;DHT22;6119;52.372;8.990;2023-11-19T09:59:50;12.70;99.90
12111;DHT22;6119;52.372;8.990;2023-11-19T10:02:40;12.70;99.90
12111;DHT22;6119;52.372;8.990;2023-11-19T10:05:27;12.70;99.90
12111;DHT22;6119;52.372;8.990;2023-11-19T10:08:14;12.80;99.90
12111;DHT22;6119;52.372;8.990;2023-11-19T10:11:02;12.80;99.90
12111;DHT22;6119;52.372;8.990;2023-11-19T10:13:49;12.80;99.90
12111;DHT22;6119;52.372;8.990;2023-11-19T10:16:36;12.80;99.90
12111;DHT22;6119;52.372;8.990;2023-11-19T10:19:25;12.70;99.90
12111;DHT22;6119;52.372;8.990;2023-11-19T10:22:13;12.70;99.90
12111;DHT22;6119;52.372;8.990;2023-11-19T10:25:02;12.70;99.90
12111;DHT22;6119;52.372;8.990;2023-11-19T10:27:52;12.70;99.90
12111;DHT22;6119;52.372;8.990;2023-11-19T10:30:41;12.80;99.90
12111;DHT22;6119;52.372;8.990;2023-11-19T10:33:30;12.80;99.90
12111;DHT22;6119;52.372;8.990;2023-11-19T10:36:18;12.80;99.90
12111;DHT22;6119;52.372;8.990;2023-11-19T10:39:07;12.90;99.90
12111;DHT22;6119;52.372;8.990;2023-11-19T10:41:55;12.90;99.90
12111;DHT22;6119;52.372;8.990;2023-11-19T10:44:44;12.80;99.90
12111;DHT22;6119;52.372;8.990;2023-11-19T10:47:31;12.90;99.90
12111;DHT22;6119;52.372;8.990;2023-11-19T10:50:22;12.90;99.90
12111;DHT22;6119;52.372;8.990;2023-11-19T10:53:12;13.10;99.90
12111;DHT22;6119;52.372;8.990;2023-11-19T10:55:59;13.20;99.90
12111;DHT22;6119;52.372;8.990;2023-11-19T10:58:51;13.20;99.90
12111;DHT22;6119;52.372;8.990;2023-11-19T11:01:43;13.30;99.90
12111;DHT22;6119;52.372;8.990;2023-11-19T11:04:33;13.20;99.90
12111;DHT22;6119;52.372;8.990;2023-11-19T11:07:24;13.20;99.90
12111;DHT22;6119;52.372;8.990;2023-11-19T11:10:26;13.10;99.90
12111;DHT22;6119;52.372;8.990;2023-11-19T11:13:14;13.10;99.90
12111;DHT22;6119;52.372;8.990;2023-11-19T11:16:00;13.10;99.90
12111;DHT22;6119;52.372;8.990;2023-11-19T11:18:50;13.10;99.90
12111;DHT22;6119;52.372;8.990;2023-11-19T11:21:38;13.00;99.90
12111;DHT22;6119;52.372;8.990;2023-11-19T11:24:50;13.00;99.90
12111;DHT22;6119;52.372;8.990;2023-11-19T11:27:51;13.00;99.90
12111;DHT22;6119;52.372;8.990;2023-11-19T11:30:54;13.10;99.90
12111;DHT22;6119;52.372;8.990;2023-11-19T11:34:04;13.10;99.90
12111;DHT22;6119;52.372;8.990;2023-11-19T11:37:01;13.20;99.90
12111;DHT22;6119;52.372;8.990;2023-11-19T11:39:50;13.30;99.90
12111;DHT22;6119;52.372;8.990;2023-11-19T11:42:36;13.30;99.90
12111;DHT22;6119;52.372;8.990;2023-11-19T11:45:36;13.40;99.90
12111;DHT22;6119;52.372;8.990;2023-11-19T11:48:24;13.50;99.90
12111;DHT22;6119;52.372;8.990;2023-11-19T11:51:14;13.40;99.90
12111;DHT22;6119;52.372;8.990;2023-11-19T11:54:01;13.40;99.90
12111;DHT22;6119;52.372;8.990;2023-11-19T11:57:01;13.40;99.90
12111;DHT22;6119;52.372;8.990;2023-11-19T11:59:52;13.30;99.90
12111;DHT22;6119;52.372;8.990;2023-11-19T12:02:40;13.20;99.90
12111;DHT22;6119;52.372;8.990;2023-11-19T12:05:29;13.20;99.90
12111;DHT22;6119;52.372;8.990;2023-11-19T12:08:20;13.20;99.90
12111;DHT22;6119;52.372;8.990;2023-11-19T12:11:11;13.10;99.90
12111;DHT22;6119;52.372;8.990;2023-11-19T12:13:59;13.10;99.90
12111;DHT22;6119;52.372;8.990;2023-11-19T12:16:49;13.00;99.90
12111;DHT22;6119;52.372;8.990;2023-11-19T12:19:41;13.00;99.90
12111;DHT22;6119;52.372;8.990;2023-11-19T12:22:30;12.90;99.90
12111;DHT22;6119;52.372;8.990;2023-11-19T12:25:17;12.90;99.90
12111;DHT22;6119;52.372;8.990;2023-11-19T12:28:04;13.00;99.90
12111;DHT22;6119;52.372;8.990;2023-11-19T12:30:51;13.00;99.90
12111;DHT22;6119;52.372;8.990;2023-11-19T12:33:39;13.00;99.90
12111;DHT22;6119;52.372;8.990;2023-11-19T12:36:27;12.90;99.90
12111;DHT22;6119;52.372;8.990;2023-11-19T12:39:13;12.90;99.90
12111;DHT22;6119;52.372;8.990;2023-11-19T12:42:00;12.90;99.90
12111;DHT22;6119;52.372;8.990;2023-11-19T12:44:56;12.80;99.90
12111;DHT22;6119;52.372;8.990;2023-11-19T12:47:43;12.90;99.90
12111;DHT22;6119;52.372;8.990;2023-11-19T12:50:50;12.90;99.90
12111;DHT22;6119;52.372;8.990;2023-11-19T12:53:49;12.90;99.90
12111;DHT22;6119;52.372;8.990;2023-11-19T12:56:39;12.90;99.90
12111;DHT22;6119;52.372;8.990;2023-11-19T12:59:27;13.00;99.90
12111;DHT22;6119;52.372;8.990;2023-11-19T13:02:14;12.90;99.90
12111;DHT22;6119;52.372;8.990;2023-11-19T13:05:25;12.90;99.90
12111;DHT22;6119;52.372;8.990;2023-11-19T13:08:13;12.90;99.90
12111;DHT22;6119;52.372;8.990;2023-11-19T13:11:00;12.80;99.90
12111;DHT22;6119;52.372;8.990;2023-11-19T13:13:54;12.80;99.90
12111;DHT22;6119;52.372;8.990;2023-11-19T13:16:41;13.00;99.90
12111;DHT22;6119;52.372;8.990;2023-11-19T13:19:29;13.00;99.90
12111;DHT22;6119;52.372;8.990;2023-11-19T13:22:16;13.10;99.90
12111;DHT22;6119;52.372;8.990;2023-11-19T13:25:03;13.10;99.90
12111;DHT22;6119;52.372;8.990;2023-11-19T13:27:52;13.10;99.90
12111;DHT22;6119;52.372;8.990;2023-11-19T13:30:39;13.10;99.90
12111;DHT22;6119;52.372;8.990;2023-11-19T13:33:26;13.00;99.90
12111;DHT22;6119;52.372;8.990;2023-11-19T13:36:13;13.10;99.90
12111;DHT22;6119;52.372;8.990;2023-11-19T13:39:02;13.00;99.90
12111;DHT22;6119;52.372;8.990;2023-11-19T13:41:49;13.00;99.90
12111;DHT22;6119;52.372;8.990;2023-11-19T13:44:37;13.00;99.90
12111;DHT22;6119;52.372;8.990;2023-11-19T13:47:24;13.00;99.90
12111;DHT22;6119;52.372;8.990;2023-11-19T13:50:12;12.90;99.90
12111;DHT22;6119;52.372;8.990;2023-11-19T13:52:59;12.90;99.90
12111;DHT22;6119;52.372;8.990;2023-11-19T13:55:46;12.90;99.90
12111;DHT22;6119;52.372;8.990;2023-11-19T13:58:34;12.90;99.90
12111;DHT22;6119;52.372;8.990;2023-11-19T14:01:25;12.90;99.90
12111;DHT22;6119;52.372;8.990;2023-11-19T14:04:12;12.90;99.90
12111;DHT22;6119;52.372;8.990;2023-11-19T14:06:59;12.80;99.90
12111;DHT22;6119;52.372;8.990;2023-11-19T14:09:46;12.80;99.90
12111;DHT22;6119;52.372;8.990;2023-11-19T14:12:33;12.60;99.90
12111;DHT22;6119;52.372;8.990;2023-11-19T14:15:20;12.60;99.90
12111;DHT22;6119;52.372;8.990;2023-11-19T14:18:08;12.60;99.90
12111;DHT22;6119;52.372;8.990;2023-11-19T14:20:55;12.50;99.90
12111;DHT22;6119;52.372;8.990;2023-11-19T14:23:41;12.50;99.90
12111;DHT22;6119;52.372;8.990;2023-11-19T14:26:28;12.50;99.90
12111;DHT22;6119;52.372;8.990;2023-11-19T14:29:15;12.50;99.90
12111;DHT22;6119;52.372;8.990;2023-11-19T14:32:02;12.50;99.90
12111;DHT22;6119;52.372;8.990;2023-11-19T14:34:50;12.50;99.90
12111;DHT22;6119;52.372;8.990;2023-11-19T14:37:37;12.40;99.90
12111;DHT22;6119;52.372;8.990;2023-11-19T14:40:24;12.40;99.90
12111;DHT22;6119;52.372;8.990;2023-11-19T14:43:14;12.30;99.90
12111;DHT22;6119;52.372;8.990;2023-11-19T14:46:01;12.20;99.90
12111;DHT22;6119;52.372;8.990;2023-11-19T14:48:49;12.30;99.90
12111;DHT22;6119;52.372;8.990;2023-11-19T14:51:37;12.40;99.90
12111;DHT22;6119;52.372;8.990;2023-11-19T14:54:24;12.30;99.90
12111;DHT22;6119;52.372;8.990;2023-11-19T14:57:11;12.40;99.90
12111;DHT22;6119;52.372;8.990;2023-11-19T14:59:58;12.30;99.90
12111;DHT22;6119;52.372;8.990;2023-11-19T15:02:46;12.30;99.90
12111;DHT22;6119;52.372;8.990;2023-11-19T15:05:33;12.30;99.90
12111;DHT22;6119;52.372;8.990;2023-11-19T15:08:21;12.20;99.90
12111;DHT22;6119;52.372;8.990;2023-11-19T15:11:08;12.30;99.90
12111;DHT22;6119;52.372;8.990;2023-11-19T15:13:55;12.20;99.90
12111;DHT22;6119;52.372;8.990;2023-11-19T15:16:42;12.20;99.90
12111;DHT22;6119;52.372;8.990;2023-11-19T15:19:29;12.20;99.90
12111;DHT22;6119;52.372;8.990;2023-11-19T15:22:16;12.20;99.90
12111;DHT22;6119;52.372;8.990;2023-11-19T15:25:04;12.00;99.90
12111;DHT22;6119;52.372;8.990;2023-11-19T15:27:55;12.00;99.90
12111;DHT22;6119;52.372;8.990;2023-11-19T15:30:42;12.00;99.90
12111;DHT22;6119;52.372;8.990;2023-11-19T15:33:28;11.90;99.90
12111;DHT22;6119;52.372;8.990;2023-11-19T15:36:15;13.60;99.90
12111;DHT22;6119;52.372;8.990;2023-11-19T15:39:03;12.10;99.90
12111;DHT22;6119;52.372;8.990;2023-11-19T15:41:51;12.00;99.90
12111;DHT22;6119;52.372;8.990;2023-11-19T15:44:38;12.00;99.90
12111;DHT22;6119;52.372;8.990;2023-11-19T15:47:25;12.00;99.90
12111;DHT22;6119;52.372;8.990;2023-11-19T15:50:11;12.00;99.90
12111;DHT22;6119;52.372;8.990;2023-11-19T15:52:58;12.10;99.90
12111;DHT22;6119;52.372;8.990;2023-11-19T15:55:47;12.00;99.90
12111;DHT22;6119;52.372;8.990;2023-11-19T15:58:35;12.00;99.90
12111;DHT22;6119;52.372;8.990;2023-11-19T16:01:22;12.10;99.90
12111;DHT22;6119;52.372;8.990;2023-11-19T16:04:08;12.10;99.90
12111;DHT22;6119;52.372;8.990;2023-11-19T16:06:55;12.00;99.90
12111;DHT22;6119;52.372;8.990;2023-11-19T16:09:42;12.10;99.90
12111;DHT22;6119;52.372;8.990;2023-11-19T16:12:29;12.10;99.90
12111;DHT22;6119;52.372;8.990;2023-11-19T16:15:17;12.10;99.90
12111;DHT22;6119;52.372;8.990;2023-11-19T16:18:21;12.00;99.90
12111;DHT22;6119;52.372;8.990;2023-11-19T16:21:08;12.00;99.90
12111;DHT22;6119;52.372;8.990;2023-11-19T16:23:54;12.00;99.90
12111;DHT22;6119;52.372;8.990;2023-11-19T16:26:41;12.00;99.90
12111;DHT22;6119;52.372;8.990;2023-11-19T16:29:28;11.90;99.90
12111;DHT22;6119;52.372;8.990;2023-11-19T16:32:16;11.90;99.90
12111;DHT22;6119;52.372;8.990;2023-11-19T16:35:03;11.90;99.90
12111;DHT22;6119;52.372;8.990;2023-11-19T16:37:50;11.90;99.90
12111;DHT22;6119;52.372;8.990;2023-11-19T16:40:37;11.90;99.90
12111;DHT22;6119;52.372;8.990;2023-11-19T16:43:25;11.90;99.90
12111;DHT22;6119;52.372;8.990;2023-11-19T16:46:14;11.90;99.90
12111;DHT22;6119;52.372;8.990;2023-11-19T16:49:01;11.90;99.90
12111;DHT22;6119;52.372;8.990;2023-11-19T16:51:49;11.90;99.90
12111;DHT22;6119;52.372;8.990;2023-11-19T16:54:36;11.90;99.90
12111;DHT22;6119;52.372;8.990;2023-11-19T16:57:23;11.90;99.90
12111;DHT22;6119;52.372;8.990;2023-11-19T17:00:10;11.90;99.90
12111;DHT22;6119;52.372;8.990;2023-11-19T17:02:58;12.00;99.90
12111;DHT22;6119;52.372;8.990;2023-11-19T17:05:49;11.90;99.90
12111;DHT22;6119;52.372;8.990;2023-11-19T17:08:37;11.90;99.90
12111;DHT22;6119;52.372;8.990;2023-11-19T17:11:24;12.00;99.90
12111;DHT22;6119;52.372;8.990;2023-11-19T17:14:11;12.00;99.90
12111;DHT22;6119;52.372;8.990;2023-11-19T17:16:58;12.00;99.90
12111;DHT22;6119;52.372;8.990;2023-11-19T17:19:45;12.00;99.90
12111;DHT22;6119;52.372;8.990;2023-11-19T17:22:34;12.00;99.90
12111;DHT22;6119;52.372;8.990;2023-11-19T17:25:21;12.00;99.90
12111;DHT22;6119;52.372;8.990;2023-11-19T17:28:09;12.00;99.90
12111;DHT22;6119;52.372;8.990;2023-11-19T17:30:55;12.00;99.90
12111;DHT22;6119;52.372;8.990;2023-11-19T17:33:42;11.90;99.90
12111;DHT22;6119;52.372;8.990;2023-11-19T17:36:28;11.90;99.90
12111;DHT22;6119;52.372;8.990;2023-11-19T17:39:17;11.90;99.90
12111;DHT22;6119;52.372;8.990;2023-11-19T17:42:04;11.90;99.90
12111;DHT22;6119;52.372;8.990;2023-11-19T17:44:51;11.80;99.90
12111;DHT22;6119;52.372;8.990;2023-11-19T17:47:38;11.80;99.90
12111;DHT22;6119;52.372;8.990;2023-11-19T17:50:25;11.80;99.90
12111;DHT22;6119;52.372;8.990;2023-11-19T17:53:11;11.70;99.90
12111;DHT22;6119;52.372;8.990;2023-11-19T17:55:59;12.80;99.90
12111;DHT22;6119;52.372;8.990;2023-11-19T17:58:46;11.80;99.90
12111;DHT22;6119;52.372;8.990;2023-11-19T18:01:33;11.80;99.90